Time;durP1;ratioP1;P1;durP2;ratioP2;P2;SDS_P1;SDS_P2;PMS_P1;PMS_P2;Temp;Humidity;BMP_temperature;BMP_pressure;BME280_temperature;BME280_humidity;BME280_pressure;Samples;Min_cycle;Max_cycle;Signal;HPM_P1;HPM_P2
2023/01/10 00:00:51;;;;;;;80.70;74.27;;;6.10;94.30;;;;;;4995112;28;20170;-89
2023/01/10 00:03:17;;;;;;;82.57;74.67;;;6.00;94.20;;;;;;4993587;28;20280;-88
2023/01/10 00:05:43;;;;;;;85.50;77.30;;;6.00;94.20;;;;;;4995215;28;20170;-89
2023/01/10 00:08:13;;;;;;;83.50;76.00;;;6.00;94.20;;;;;;4994757;28;20660;-88
2023/01/10 00:10:38;;;;;;;73.90;67.73;;;5.90;94.10;;;;;;4995119;28;20162;-88
2023/01/10 00:13:22;;;;;;;75.80;69.17;;;5.80;94.00;;;;;;4993587;28;20236;-89
2023/01/10 00:15:54;;;;;;;78.43;71.27;;;5.80;94.10;;;;;;4994791;28;20249;-88
2023/01/10 00:18:21;;;;;;;73.37;67.43;;;5.80;94.10;;;;;;4993520;28;20209;-88
2023/01/10 00:20:48;;;;;;;72.43;66.47;;;5.80;94.10;;;;;;4994533;28;20316;-89
2023/01/10 00:23:16;;;;;;;72.50;66.07;;;5.70;94.10;;;;;;4995069;28;20686;-90
2023/01/10 00:25:41;;;;;;;72.33;65.67;;;5.80;94.00;;;;;;4994656;28;20657;-90
2023/01/10 00:28:18;;;;;;;73.03;66.27;;;5.70;93.90;;;;;;4994970;28;20178;-90
2023/01/10 00:30:54;;;;;;;68.23;62.30;;;5.70;94.00;;;;;;4994627;28;20165;-90
2023/01/10 00:33:20;;;;;;;67.77;61.27;;;5.70;93.90;;;;;;4994276;28;20220;-90
2023/01/10 00:35:47;;;;;;;67.17;61.37;;;5.60;93.90;;;;;;4994489;28;20702;-90
2023/01/10 00:38:13;;;;;;;69.37;63.20;;;5.50;93.90;;;;;;4994746;28;20208;-90
2023/01/10 00:40:39;;;;;;;71.83;64.33;;;5.50;93.90;;;;;;4992739;28;20215;-90
2023/01/10 00:45:49;;;;;;;70.47;64.60;;;5.40;93.90;;;;;;4994513;28;20177;-88
2023/01/10 00:48:15;;;;;;;72.53;65.90;;;5.50;94.00;;;;;;4994147;28;20181;-89
2023/01/10 00:50:41;;;;;;;69.43;63.40;;;5.50;94.00;;;;;;4992932;28;20557;-89
2023/01/10 00:53:07;;;;;;;74.33;67.57;;;5.40;94.00;;;;;;4992755;28;20202;-89
2023/01/10 00:55:35;;;;;;;75.03;67.97;;;5.40;94.00;;;;;;4992945;28;20213;-88
2023/01/10 00:58:01;;;;;;;77.70;70.13;;;5.30;93.90;;;;;;4993085;28;20185;-88
2023/01/10 01:00:26;;;;;;;77.77;70.23;;;5.30;93.90;;;;;;4992740;28;20264;-88
2023/01/10 01:02:52;;;;;;;76.13;69.70;;;5.30;94.00;;;;;;4993038;28;20566;-88
2023/01/10 01:05:18;;;;;;;80.17;72.60;;;5.30;94.10;;;;;;4993644;28;20251;-88
2023/01/10 01:07:46;;;;;;;80.63;74.23;;;5.20;94.10;;;;;;4992720;28;20185;-88
2023/01/10 01:10:26;;;;;;;80.27;72.47;;;5.20;94.20;;;;;;4992686;28;20185;-88
2023/01/10 01:12:56;;;;;;;81.20;73.47;;;5.20;94.10;;;;;;4992757;28;20209;-88
2023/01/10 01:15:22;;;;;;;79.83;72.97;;;5.10;94.20;;;;;;4994449;28;20169;-88
2023/01/10 01:17:48;;;;;;;75.83;69.20;;;5.10;94.30;;;;;;4993739;28;20339;-88
2023/01/10 01:20:14;;;;;;;79.53;73.10;;;5.10;94.30;;;;;;4993735;28;20203;-88
2023/01/10 01:22:39;;;;;;;80.27;73.83;;;5.10;94.40;;;;;;4993793;28;20212;-88
2023/01/10 01:25:06;;;;;;;81.20;74.23;;;5.20;94.50;;;;;;4992472;28;20635;-87
2023/01/10 01:27:31;;;;;;;79.23;72.40;;;5.30;94.40;;;;;;4993114;28;20646;-88
2023/01/10 01:29:57;;;;;;;75.53;69.13;;;5.20;94.40;;;;;;4993801;28;20177;-88
2023/01/10 01:32:23;;;;;;;72.77;67.07;;;5.30;94.40;;;;;;4992471;28;20228;-88
2023/01/10 01:34:49;;;;;;;76.13;69.60;;;5.30;94.30;;;;;;4993572;28;20182;-88
2023/01/10 01:37:15;;;;;;;72.03;66.43;;;5.30;94.30;;;;;;4993672;28;20189;-88
2023/01/10 01:39:40;;;;;;;71.60;66.20;;;5.40;94.20;;;;;;4993529;28;20663;-88
2023/01/10 01:42:26;;;;;;;72.97;66.27;;;5.40;94.20;;;;;;4992770;28;20194;-88
2023/01/10 01:45:07;;;;;;;70.37;64.67;;;5.40;94.10;;;;;;4992403;28;20169;-88
2023/01/10 01:47:40;;;;;;;65.67;60.43;;;5.40;94.10;;;;;;4992340;28;20227;-88
2023/01/10 01:50:13;;;;;;;67.70;62.00;;;5.40;94.00;;;;;;4992352;28;20646;-88
2023/01/10 01:52:39;;;;;;;65.03;58.87;;;5.50;94.00;;;;;;4993919;28;20233;-88
2023/01/10 01:55:05;;;;;;;66.30;60.07;;;5.50;94.00;;;;;;4996004;28;20192;-88
2023/01/10 01:57:32;;;;;;;65.40;59.47;;;5.50;93.90;;;;;;4997319;28;20184;-88
2023/01/10 02:00:01;;;;;;;62.93;56.70;;;5.50;93.80;;;;;;4997099;28;20201;-88
2023/01/10 02:02:35;;;;;;;64.03;57.43;;;5.50;93.80;;;;;;4995817;28;20228;-88
2023/01/10 02:05:13;;;;;;;62.60;56.97;;;5.50;93.70;;;;;;4997264;28;20189;-88
2023/01/10 02:07:44;;;;;;;63.13;57.83;;;5.50;93.70;;;;;;4996738;28;20203;-88
2023/01/10 02:10:43;;;;;;;61.17;55.57;;;5.50;93.70;;;;;;4996055;28;20189;-88
2023/01/10 02:13:11;;;;;;;63.97;57.73;;;5.50;93.70;;;;;;4995718;28;20205;-88
2023/01/10 02:15:37;;;;;;;64.93;59.43;;;5.50;93.70;;;;;;4996975;28;20174;-88
2023/01/10 02:18:03;;;;;;;58.80;54.60;;;5.50;93.80;;;;;;4996941;28;20296;-88
2023/01/10 02:20:36;;;;;;;65.70;59.43;;;5.50;93.80;;;;;;4996790;28;20209;-88
2023/01/10 02:23:39;;;;;;;64.03;58.17;;;5.50;93.80;;;;;;4997070;28;20193;-88
2023/01/10 02:26:11;;;;;;;65.93;59.40;;;5.50;93.80;;;;;;4996969;28;20174;-88
2023/01/10 02:29:11;;;;;;;61.23;55.73;;;5.50;93.80;;;;;;4995710;28;20216;-88
2023/01/10 02:32:11;;;;;;;59.37;53.67;;;5.50;93.70;;;;;;4996555;28;20197;-88
2023/01/10 02:35:16;;;;;;;56.73;51.83;;;5.40;93.60;;;;;;4995403;28;20181;-89
2023/01/10 02:37:58;;;;;;;58.30;53.87;;;5.40;93.60;;;;;;4995370;28;20280;-88
2023/01/10 02:40:50;;;;;;;56.87;52.43;;;5.30;93.70;;;;;;4995141;28;20193;-88
2023/01/10 02:43:28;;;;;;;60.97;55.57;;;5.40;93.70;;;;;;4996656;28;20292;-88
2023/01/10 02:46:23;;;;;;;63.20;57.73;;;5.50;93.80;;;;;;4995183;28;20170;-88
2023/01/10 02:48:50;;;;;;;59.57;54.33;;;5.40;93.70;;;;;;4995107;28;20184;-88
2023/01/10 02:51:32;;;;;;;56.70;50.63;;;5.50;93.70;;;;;;4995313;28;20292;-88
2023/01/10 02:54:11;;;;;;;54.07;49.53;;;5.50;93.60;;;;;;4996499;28;20611;-88
2023/01/10 02:57:02;;;;;;;55.20;51.00;;;5.50;93.50;;;;;;4994907;28;20187;-87
2023/01/10 02:59:41;;;;;;;55.77;51.23;;;5.50;93.50;;;;;;4995974;28;20244;-88
2023/01/10 03:02:29;;;;;;;53.93;49.37;;;5.50;93.60;;;;;;4996010;28;20181;-88
2023/01/10 03:05:16;;;;;;;54.57;50.00;;;5.40;93.60;;;;;;4996092;28;20617;-88
2023/01/10 03:08:10;;;;;;;56.10;50.77;;;5.40;93.60;;;;;;4994696;28;20213;-88
2023/01/10 03:11:11;;;;;;;51.03;46.70;;;5.40;93.50;;;;;;4996318;28;20170;-88
2023/01/10 03:13:40;;;;;;;55.30;50.20;;;5.30;93.50;;;;;;4936110;29;20214;-88
2023/01/10 03:16:09;;;;;;;55.63;51.00;;;5.30;93.50;;;;;;4984613;28;20288;-88
2023/01/10 03:18:56;;;;;;;57.57;52.60;;;5.20;93.50;;;;;;4995716;28;20273;-88
2023/01/10 03:21:25;;;;;;;61.27;55.93;;;5.20;93.60;;;;;;4994554;28;20221;-88
2023/01/10 03:23:55;;;;;;;61.10;55.63;;;5.20;93.70;;;;;;4994340;28;20229;-88
2023/01/10 03:26:28;;;;;;;58.13;53.00;;;5.20;93.70;;;;;;4995585;28;20169;-88
2023/01/10 03:29:04;;;;;;;60.13;55.13;;;5.20;93.80;;;;;;4994372;28;20544;-88
2023/01/10 03:31:36;;;;;;;60.87;55.73;;;5.20;93.80;;;;;;4994221;28;20169;-88
2023/01/10 03:34:03;;;;;;;61.50;55.37;;;5.20;93.70;;;;;;4996081;28;20259;-88
2023/01/10 03:36:31;;;;;;;59.73;53.83;;;5.10;93.70;;;;;;4994250;28;20212;-88
2023/01/10 03:39:14;;;;;;;59.37;54.30;;;5.10;93.70;;;;;;4994130;28;20679;-87
2023/01/10 03:41:52;;;;;;;58.80;53.60;;;5.10;93.70;;;;;;4994217;28;20604;-88
2023/01/10 03:44:43;;;;;;;56.13;51.13;;;5.10;93.70;;;;;;4994015;28;20216;-88
2023/01/10 03:47:18;;;;;;;60.50;55.77;;;5.10;93.70;;;;;;4995229;28;20216;-88
2023/01/10 03:49:47;;;;;;;62.30;56.87;;;5.00;93.80;;;;;;4994007;28;20185;-88
2023/01/10 03:52:15;;;;;;;61.57;57.13;;;5.00;93.80;;;;;;4993777;28;20240;-88
2023/01/10 03:54:44;;;;;;;61.90;57.00;;;5.00;93.90;;;;;;4995076;28;20706;-88
2023/01/10 03:57:18;;;;;;;63.20;58.17;;;5.00;93.90;;;;;;4993841;28;20185;-88
2023/01/10 03:59:44;;;;;;;59.83;55.53;;;5.10;94.00;;;;;;4993888;28;20212;-88
2023/01/10 04:02:11;;;;;;;64.23;58.50;;;5.00;93.90;;;;;;4994918;28;20680;-88
2023/01/10 04:04:36;;;;;;;65.73;60.27;;;5.00;94.00;;;;;;4994817;28;20221;-88
2023/01/10 04:07:02;;;;;;;65.47;60.20;;;5.10;94.00;;;;;;4993579;28;20185;-88
2023/01/10 04:09:27;;;;;;;68.80;63.20;;;5.10;94.00;;;;;;4993636;28;20279;-88
2023/01/10 04:11:53;;;;;;;68.47;62.37;;;5.10;94.00;;;;;;4993517;28;20606;-88
2023/01/10 04:14:18;;;;;;;64.47;59.40;;;5.10;94.10;;;;;;4992976;28;20247;-88
2023/01/10 04:16:44;;;;;;;68.87;63.50;;;5.20;94.20;;;;;;4993267;28;20185;-88
2023/01/10 04:19:09;;;;;;;67.53;61.80;;;5.20;94.20;;;;;;4993293;28;20583;-88
2023/01/10 04:21:35;;;;;;;68.13;62.57;;;5.20;94.20;;;;;;4993340;28;20235;-88
2023/01/10 04:24:00;;;;;;;64.43;58.70;;;5.20;94.20;;;;;;4994478;28;20193;-88
2023/01/10 04:26:26;;;;;;;64.27;59.30;;;5.20;94.20;;;;;;4994776;28;20194;-88
2023/01/10 04:28:51;;;;;;;65.73;60.40;;;5.30;94.20;;;;;;4994449;28;20194;-88
2023/01/10 04:31:17;;;;;;;69.73;63.67;;;5.20;94.20;;;;;;4993242;28;20613;-88
2023/01/10 04:33:42;;;;;;;68.77;63.27;;;5.20;94.20;;;;;;4994151;28;20240;-88
2023/01/10 04:36:08;;;;;;;68.90;63.80;;;5.20;94.20;;;;;;4993197;28;20240;-88
2023/01/10 04:38:33;;;;;;;72.20;64.87;;;5.30;94.20;;;;;;4992972;28;20181;-88
2023/01/10 04:40:59;;;;;;;72.70;66.30;;;5.30;94.20;;;;;;4993611;28;20205;-88
2023/01/10 04:43:26;;;;;;;67.10;61.60;;;5.30;94.20;;;;;;4994254;28;20197;-87
2023/01/10 04:45:51;;;;;;;68.80;63.33;;;5.30;94.20;;;;;;4994203;28;20256;-88
2023/01/10 04:48:17;;;;;;;64.00;58.83;;;5.40;94.10;;;;;;4994412;28;20265;-88
2023/01/10 04:50:48;;;;;;;65.87;59.30;;;5.40;94.00;;;;;;4992910;28;20651;-88
2023/01/10 04:53:14;;;;;;;63.40;57.70;;;5.40;94.00;;;;;;4994168;28;20252;-88
2023/01/10 04:55:39;;;;;;;61.17;56.53;;;5.40;94.00;;;;;;4992909;28;20173;-88
2023/01/10 04:58:05;;;;;;;60.27;55.00;;;5.40;93.90;;;;;;4992917;28;20184;-88
2023/01/10 05:00:30;;;;;;;58.23;53.00;;;5.50;93.90;;;;;;4993933;28;20226;-88
2023/01/10 05:02:56;;;;;;;61.30;55.33;;;5.40;93.80;;;;;;4992767;28;20197;-88
2023/01/10 05:05:23;;;;;;;59.87;54.87;;;5.40;93.80;;;;;;4992881;28;20185;-88
2023/01/10 05:07:49;;;;;;;61.57;56.90;;;5.40;93.80;;;;;;4992775;28;20182;-88
2023/01/10 05:10:15;;;;;;;66.43;60.27;;;5.40;93.90;;;;;;4992768;28;20613;-88
2023/01/10 05:12:40;;;;;;;65.37;59.93;;;5.40;93.90;;;;;;4992719;28;20344;-88
2023/01/10 05:15:06;;;;;;;66.77;60.53;;;5.40;93.90;;;;;;4994453;28;20189;-88
2023/01/10 05:17:33;;;;;;;67.93;62.63;;;5.30;93.90;;;;;;4992709;28;20726;-88
2023/01/10 05:19:58;;;;;;;63.33;58.37;;;5.40;93.90;;;;;;4992539;28;20216;-88
2023/01/10 05:22:24;;;;;;;62.87;56.53;;;5.30;93.90;;;;;;4993688;28;20211;-88
2023/01/10 05:24:49;;;;;;;61.90;56.33;;;5.30;93.80;;;;;;4992522;28;20181;-88
2023/01/10 05:27:15;;;;;;;62.57;56.73;;;5.30;93.80;;;;;;4997004;28;20204;-88
2023/01/10 05:29:41;;;;;;;58.60;53.10;;;5.20;93.80;;;;;;4996670;28;20189;-88
2023/01/10 05:32:06;;;;;;;57.10;52.47;;;5.20;93.80;;;;;;4996380;28;20308;-88
2023/01/10 05:34:32;;;;;;;59.37;53.93;;;5.20;93.80;;;;;;4996521;28;20181;-88
2023/01/10 05:36:57;;;;;;;58.80;53.30;;;5.10;93.80;;;;;;4996410;28;20191;-88
2023/01/10 05:39:23;;;;;;;61.67;55.87;;;5.00;93.80;;;;;;4997630;28;20706;-88
2023/01/10 05:41:48;;;;;;;56.63;51.53;;;5.10;93.80;;;;;;4996412;28;20180;-88
2023/01/10 05:44:14;;;;;;;59.63;54.23;;;5.10;93.80;;;;;;4997477;28;20186;-88
2023/01/10 05:46:39;;;;;;;54.60;49.27;;;5.10;93.70;;;;;;4997518;28;20185;-88
2023/01/10 05:49:05;;;;;;;54.77;49.57;;;5.10;93.70;;;;;;4996253;28;20180;-88
2023/01/10 05:51:30;;;;;;;58.80;53.43;;;5.10;93.70;;;;;;4996248;28;20669;-88
2023/01/10 05:53:57;;;;;;;56.27;51.40;;;5.20;93.70;;;;;;4996213;28;20291;-88
2023/01/10 05:56:23;;;;;;;57.83;52.37;;;5.10;93.60;;;;;;4997357;28;20173;-88
2023/01/10 05:58:48;;;;;;;56.60;52.10;;;5.10;93.70;;;;;;4997284;28;20181;-88
2023/01/10 06:01:14;;;;;;;58.43;52.43;;;5.10;93.70;;;;;;4996155;28;20180;-88
2023/01/10 06:03:40;;;;;;;57.43;52.57;;;5.00;93.70;;;;;;4995922;28;20204;-88
2023/01/10 06:06:06;;;;;;;54.80;49.93;;;5.00;93.70;;;;;;4997355;28;20644;-88
2023/01/10 06:08:31;;;;;;;56.00;51.27;;;4.90;93.70;;;;;;4995871;28;20734;-88
2023/01/10 06:10:57;;;;;;;54.23;49.80;;;4.90;93.70;;;;;;4997399;28;20261;-88
2023/01/10 06:13:23;;;;;;;58.60;52.80;;;4.80;93.70;;;;;;4997040;28;20197;-88
2023/01/10 06:15:49;;;;;;;55.50;50.27;;;4.80;93.70;;;;;;4995819;28;20268;-88
2023/01/10 06:18:15;;;;;;;54.90;50.37;;;4.80;93.80;;;;;;4995863;28;20193;-88
2023/01/10 06:20:41;;;;;;;58.60;53.33;;;4.80;93.70;;;;;;4996988;28;20211;-88
2023/01/10 06:23:07;;;;;;;59.90;54.70;;;4.70;93.80;;;;;;4996862;28;20205;-88
2023/01/10 06:25:36;;;;;;;56.43;50.53;;;4.80;93.90;;;;;;4995713;28;20757;-88
2023/01/10 06:28:02;;;;;;;60.40;54.60;;;4.80;93.90;;;;;;4996969;28;20168;-88
2023/01/10 06:30:28;;;;;;;56.53;51.40;;;4.80;93.90;;;;;;4997341;28;20604;-88
2023/01/10 06:32:58;;;;;;;57.70;52.43;;;4.70;93.80;;;;;;4995657;28;20242;-88
2023/01/10 06:35:24;;;;;;;56.40;52.00;;;4.70;93.90;;;;;;4995810;28;20176;-88
2023/01/10 06:37:50;;;;;;;58.97;53.43;;;4.70;93.90;;;;;;4994740;28;20185;-88
2023/01/10 06:40:16;;;;;;;57.33;52.57;;;4.70;93.90;;;;;;4995677;28;20219;-88
2023/01/10 06:42:41;;;;;;;57.93;52.83;;;4.70;93.90;;;;;;4996569;28;20201;-88
2023/01/10 06:45:07;;;;;;;58.57;52.73;;;4.70;93.90;;;;;;4995289;28;20667;-88
2023/01/10 06:47:33;;;;;;;58.17;53.20;;;4.80;93.90;;;;;;4996646;28;20223;-88
2023/01/10 06:49:59;;;;;;;64.93;57.97;;;4.80;94.00;;;;;;4996409;28;20659;-88
2023/01/10 06:52:24;;;;;;;58.33;53.90;;;4.80;94.10;;;;;;4996283;28;20688;-88
2023/01/10 06:54:51;;;;;;;59.03;53.70;;;4.80;94.00;;;;;;4996472;28;20181;-88
2023/01/10 06:57:17;;;;;;;57.77;52.73;;;4.90;94.00;;;;;;4996434;28;20228;-88
2023/01/10 06:59:43;;;;;;;61.10;55.50;;;4.80;94.00;;;;;;4995016;28;20213;-88
2023/01/10 07:02:10;;;;;;;58.27;52.70;;;4.80;94.00;;;;;;4995081;28;20181;-88
2023/01/10 07:04:35;;;;;;;57.47;52.10;;;4.80;94.00;;;;;;4996318;28;20177;-88
2023/01/10 07:07:01;;;;;;;54.60;49.03;;;4.80;93.90;;;;;;4994754;28;20177;-88
2023/01/10 07:09:27;;;;;;;58.60;53.13;;;4.80;93.90;;;;;;4994891;28;20192;-88
2023/01/10 07:11:53;;;;;;;58.07;52.57;;;4.80;93.90;;;;;;4996170;28;20189;-88
2023/01/10 07:14:18;;;;;;;57.13;51.80;;;4.80;93.90;;;;;;4994567;28;20299;-88
2023/01/10 07:16:44;;;;;;;57.87;52.97;;;4.80;93.90;;;;;;4995197;28;20221;-88
2023/01/10 07:19:12;;;;;;;56.90;52.43;;;4.80;93.90;;;;;;4995710;28;20209;-88
2023/01/10 07:21:38;;;;;;;59.13;53.23;;;4.80;93.90;;;;;;4995795;28;20172;-88
2023/01/10 07:24:04;;;;;;;59.13;53.53;;;4.80;93.90;;;;;;4995753;28;20195;-88
2023/01/10 07:26:29;;;;;;;56.93;51.70;;;4.70;93.80;;;;;;4995895;28;20196;-88
2023/01/10 07:28:55;;;;;;;60.63;55.40;;;4.50;93.90;;;;;;4995869;28;20166;-88
2023/01/10 07:31:22;;;;;;;63.30;57.60;;;4.50;94.00;;;;;;4995470;28;20302;-88
2023/01/10 07:33:49;;;;;;;63.03;57.77;;;4.40;94.00;;;;;;4994276;28;20285;-88
2023/01/10 07:36:15;;;;;;;66.80;61.37;;;4.40;94.00;;;;;;4994345;28;20178;-88
2023/01/10 07:38:41;;;;;;;66.60;60.87;;;4.30;94.10;;;;;;4995472;28;20181;-88
2023/01/10 07:41:07;;;;;;;68.07;61.43;;;4.30;94.10;;;;;;4994165;28;20207;-88
2023/01/10 07:43:33;;;;;;;69.80;64.10;;;4.30;94.20;;;;;;4995526;28;20191;-88
2023/01/10 07:46:04;;;;;;;71.00;65.00;;;4.20;94.30;;;;;;4994116;28;20711;-88
2023/01/10 07:48:29;;;;;;;68.77;62.97;;;4.20;94.20;;;;;;4993944;28;20177;-88
2023/01/10 07:50:57;;;;;;;74.00;67.83;;;4.10;94.30;;;;;;4994095;28;20170;-88
2023/01/10 07:53:22;;;;;;;74.27;68.07;;;4.10;94.40;;;;;;4994122;28;20202;-88
2023/01/10 07:55:49;;;;;;;77.97;71.20;;;4.10;94.40;;;;;;4993793;28;20183;-88
2023/01/10 07:58:14;;;;;;;77.37;70.33;;;4.10;94.50;;;;;;4993904;28;20183;-88
2023/01/10 08:00:40;;;;;;;76.57;69.63;;;4.30;94.70;;;;;;4994122;28;20205;-88
2023/01/10 08:03:05;;;;;;;73.30;67.53;;;4.20;94.50;;;;;;4993724;28;20207;-88
2023/01/10 08:05:31;;;;;;;75.97;69.53;;;4.30;94.60;;;;;;4993743;28;20277;-88
2023/01/10 08:08:06;;;;;;;74.73;68.73;;;4.30;94.60;;;;;;4993673;28;20188;-88
2023/01/10 08:10:33;;;;;;;76.03;69.60;;;4.30;94.60;;;;;;4993594;28;20180;-86
2023/01/10 08:12:59;;;;;;;73.03;67.50;;;4.40;94.60;;;;;;4994982;28;20199;-86
2023/01/10 08:15:24;;;;;;;71.63;66.33;;;4.50;94.60;;;;;;4994787;28;20648;-85
2023/01/10 08:17:50;;;;;;;74.87;68.53;;;4.50;94.60;;;;;;4994766;28;20660;-86
2023/01/10 08:20:15;;;;;;;71.87;65.63;;;4.50;94.50;;;;;;4993433;28;20213;-87
2023/01/10 08:22:41;;;;;;;69.07;63.70;;;4.60;94.50;;;;;;4994519;28;20196;-87
2023/01/10 08:25:07;;;;;;;69.53;63.27;;;4.60;94.50;;;;;;4993376;28;20248;-88
2023/01/10 08:27:33;;;;;;;68.90;62.97;;;4.80;94.40;;;;;;4993395;28;20658;-87
2023/01/10 08:29:58;;;;;;;62.00;56.73;;;4.80;94.30;;;;;;4993637;28;20281;-88
2023/01/10 08:32:24;;;;;;;62.00;57.00;;;4.90;94.20;;;;;;4993188;28;20350;-88
2023/01/10 08:34:49;;;;;;;63.20;56.70;;;4.90;94.10;;;;;;4994398;28;20192;-88
2023/01/10 08:37:15;;;;;;;64.27;57.70;;;4.90;94.10;;;;;;4994368;28;20266;-89
2023/01/10 08:39:40;;;;;;;65.83;59.47;;;5.00;94.10;;;;;;4994257;28;20202;-89
2023/01/10 08:42:06;;;;;;;68.47;61.70;;;5.10;94.10;;;;;;4992967;28;20186;-90
2023/01/10 08:44:31;;;;;;;65.43;59.20;;;5.10;94.10;;;;;;4994534;28;20177;-88
2023/01/10 08:46:57;;;;;;;59.80;55.33;;;5.20;94.00;;;;;;4992887;28;20216;-89
2023/01/10 08:49:22;;;;;;;60.87;55.73;;;5.20;93.90;;;;;;4992946;28;20219;-88
2023/01/10 08:51:48;;;;;;;60.20;55.20;;;5.20;93.90;;;;;;4994096;28;20268;-88
2023/01/10 08:54:14;;;;;;;61.30;56.10;;;5.20;93.90;;;;;;4993529;28;20200;-89
2023/01/10 08:56:40;;;;;;;60.83;54.93;;;5.30;93.80;;;;;;4992927;28;20185;-88
2023/01/10 08:59:06;;;;;;;60.70;54.33;;;5.20;93.70;;;;;;4992778;28;20209;-88
2023/01/10 09:01:32;;;;;;;59.23;54.07;;;5.10;93.60;;;;;;4993701;28;20641;-88
2023/01/10 09:03:58;;;;;;;60.50;54.23;;;5.10;93.80;;;;;;4992734;28;20197;-88
2023/01/10 09:06:24;;;;;;;60.67;55.03;;;5.20;93.80;;;;;;4992781;28;20177;-88
2023/01/10 09:08:50;;;;;;;61.60;55.93;;;5.20;93.80;;;;;;4992729;28;20177;-88
2023/01/10 09:11:16;;;;;;;62.13;56.53;;;5.20;93.70;;;;;;4992676;28;20194;-88
2023/01/10 09:13:41;;;;;;;55.80;49.93;;;5.30;93.80;;;;;;4993862;28;20197;-89
2023/01/10 09:16:07;;;;;;;56.70;51.67;;;5.30;93.70;;;;;;4992586;28;20174;-88
2023/01/10 09:18:33;;;;;;;59.80;54.43;;;5.30;93.60;;;;;;4992642;28;20261;-89
2023/01/10 09:20:59;;;;;;;55.70;50.50;;;5.40;93.60;;;;;;4992632;28;20252;-89
2023/01/10 09:23:25;;;;;;;52.97;48.57;;;5.50;93.60;;;;;;4993823;28;20197;-89
2023/01/10 09:25:53;;;;;;;62.37;48.93;;;5.50;93.60;;;;;;4992581;28;20177;-88
2023/01/10 09:28:20;;;;;;;56.70;51.00;;;5.50;93.50;;;;;;4992483;28;20181;-89
2023/01/10 09:30:46;;;;;;;49.53;45.57;;;5.60;93.60;;;;;;4994013;28;20256;-89
2023/01/10 09:33:12;;;;;;;54.73;49.43;;;5.60;93.50;;;;;;4992422;28;20248;-89
2023/01/10 09:35:40;;;;;;;53.90;49.23;;;5.70;93.50;;;;;;4994028;28;20539;-89
2023/01/10 09:38:10;;;;;;;52.63;47.43;;;5.70;93.40;;;;;;4993347;28;20188;-89
2023/01/10 09:40:38;;;;;;;54.00;49.20;;;5.70;93.30;;;;;;4992373;28;20208;-89
2023/01/10 09:43:34;;;;;;;54.17;48.83;;;5.80;93.30;;;;;;4992753;28;20229;-89
2023/01/10 09:46:06;;;;;;;53.87;48.97;;;5.80;93.30;;;;;;4992477;28;20166;-90
2023/01/10 09:49:00;;;;;;;49.30;45.30;;;5.80;93.20;;;;;;4992322;28;20181;-89
2023/01/10 09:51:36;;;;;;;53.90;48.63;;;5.80;93.20;;;;;;4993619;28;20155;-89
2023/01/10 09:54:05;;;;;;;49.47;44.43;;;5.80;93.20;;;;;;4993863;28;20557;-89
2023/01/10 09:56:32;;;;;;;54.70;48.87;;;5.80;93.10;;;;;;4993107;28;20185;-89
2023/01/10 09:58:59;;;;;;;51.93;46.87;;;5.90;93.20;;;;;;4992125;28;20237;-89
2023/01/10 10:01:37;;;;;;;51.70;47.23;;;5.90;93.10;;;;;;4992313;28;20170;-89
2023/01/10 10:04:21;;;;;;;49.23;44.17;;;5.90;93.10;;;;;;4992312;28;20209;-89
2023/01/10 10:06:49;;;;;;;51.43;46.10;;;5.90;93.10;;;;;;4993422;28;20217;-89
2023/01/10 10:09:20;;;;;;;54.23;48.70;;;5.90;93.00;;;;;;4993704;28;20177;-87
2023/01/10 10:11:57;;;;;;;53.97;48.47;;;5.90;93.00;;;;;;4992246;28;20219;-88
2023/01/10 10:14:44;;;;;;;51.57;46.63;;;6.00;93.00;;;;;;4995978;28;20204;-90
2023/01/10 10:17:26;;;;;;;50.53;45.57;;;6.00;93.00;;;;;;4997318;28;20158;-89
2023/01/10 10:20:14;;;;;;;46.37;42.83;;;6.00;93.00;;;;;;4996801;28;20182;-90
2023/01/10 10:23:12;;;;;;;51.77;47.07;;;6.00;92.90;;;;;;4995683;28;20194;-89
2023/01/10 10:26:05;;;;;;;46.30;42.23;;;6.00;92.90;;;;;;4995677;28;20169;-89
2023/01/10 10:29:06;;;;;;;50.53;45.27;;;6.10;92.90;;;;;;4995656;28;20169;-89
2023/01/10 10:31:38;;;;;;;46.00;41.23;;;6.10;92.80;;;;;;4996630;28;20224;-89
2023/01/10 10:34:37;;;;;;;43.97;40.03;;;6.20;92.70;;;;;;4995503;28;20205;-90
2023/01/10 10:37:07;;;;;;;44.43;39.57;;;6.20;92.50;;;;;;4996697;28;20258;-90
2023/01/10 10:40:14;;;;;;;48.87;39.83;;;6.20;92.50;;;;;;4996225;28;20201;-90
2023/01/10 10:42:45;;;;;;;46.83;37.00;;;6.30;92.30;;;;;;4988877;28;20288;-88
2023/01/10 10:45:46;;;;;;;45.50;40.30;;;6.30;92.20;;;;;;4995293;28;20162;-88
2023/01/10 10:48:26;;;;;;;48.43;43.20;;;6.30;92.30;;;;;;4978465;28;20182;-87
2023/01/10 10:50:51;;;;;;;49.60;44.00;;;6.30;92.40;;;;;;4995172;28;20540;-88
2023/01/10 10:53:18;;;;;;;47.63;42.00;;;6.30;92.40;;;;;;4995028;28;20200;-88
2023/01/10 10:55:44;;;;;;;45.13;38.57;;;6.40;92.40;;;;;;4996354;28;20178;-88
2023/01/10 10:58:13;;;;;;;47.23;40.90;;;6.40;92.30;;;;;;4995124;28;20269;-88
2023/01/10 11:00:39;;;;;;;43.63;39.07;;;6.40;92.30;;;;;;4994885;28;20209;-88
2023/01/10 11:03:33;;;;;;;43.63;39.13;;;6.40;92.30;;;;;;4994877;28;20194;-89
2023/01/10 11:05:59;;;;;;;42.47;37.97;;;6.40;92.20;;;;;;4996087;28;20165;-89
2023/01/10 11:08:27;;;;;;;43.10;38.33;;;6.40;92.10;;;;;;4994831;28;20209;-88
2023/01/10 11:10:55;;;;;;;42.13;36.50;;;6.50;92.20;;;;;;4995519;28;20581;-86
2023/01/10 11:13:33;;;;;;;45.73;39.53;;;6.40;92.10;;;;;;4994933;28;20206;-87
2023/01/10 11:16:05;;;;;;;44.17;40.03;;;6.50;92.20;;;;;;4994836;28;20217;-87
2023/01/10 11:18:32;;;;;;;41.20;36.83;;;6.50;92.20;;;;;;4995891;28;20591;-87
2023/01/10 11:20:59;;;;;;;43.33;38.23;;;6.50;92.20;;;;;;4994556;28;20209;-86
2023/01/10 11:23:49;;;;;;;43.57;36.33;;;6.50;92.20;;;;;;4994486;28;20198;-87
2023/01/10 11:26:29;;;;;;;46.87;36.43;;;6.60;92.10;;;;;;4995912;28;20169;-86
2023/01/10 11:29:15;;;;;;;40.20;36.33;;;6.60;92.20;;;;;;4994584;28;20604;-86
2023/01/10 11:31:41;;;;;;;49.03;36.73;;;6.60;92.20;;;;;;4995719;28;20197;-86
2023/01/10 11:34:21;;;;;;;41.43;37.03;;;6.60;92.20;;;;;;4994492;28;20206;-87
2023/01/10 11:36:58;;;;;;;38.70;34.80;;;6.60;92.10;;;;;;4995981;28;20158;-87
2023/01/10 11:39:24;;;;;;;40.87;36.50;;;6.60;92.10;;;;;;4996379;28;20224;-87
2023/01/10 11:41:51;;;;;;;39.97;34.77;;;6.60;92.10;;;;;;4996102;28;20228;-87
2023/01/10 11:44:22;;;;;;;44.33;37.17;;;6.70;92.10;;;;;;4995655;28;20201;-89
2023/01/10 11:46:50;;;;;;;39.60;34.23;;;6.70;92.20;;;;;;4995049;28;20166;-89
2023/01/10 11:49:25;;;;;;;38.93;33.80;;;6.80;92.00;;;;;;4994189;28;20170;-89
2023/01/10 11:51:54;;;;;;;33.93;30.37;;;6.80;92.10;;;;;;4994030;28;20197;-89
2023/01/10 11:54:28;;;;;;;39.17;33.73;;;6.80;91.90;;;;;;4995126;28;20202;-88
2023/01/10 11:57:13;;;;;;;44.50;35.97;;;6.80;91.90;;;;;;4994438;28;20182;-89
2023/01/10 11:59:38;;;;;;;48.20;36.73;;;6.80;91.90;;;;;;4994633;28;20201;-89
2023/01/10 12:02:21;;;;;;;41.63;37.20;;;6.80;92.10;;;;;;4994945;28;20174;-88
2023/01/10 12:04:55;;;;;;;52.67;40.23;;;6.80;92.00;;;;;;4994165;28;20188;-89
2023/01/10 12:07:21;;;;;;;51.10;38.07;;;6.80;92.10;;;;;;4995442;28;20166;-88
2023/01/10 12:09:58;;;;;;;49.50;38.97;;;6.80;92.00;;;;;;4994892;28;20185;-89
2023/01/10 12:12:29;;;;;;;45.00;36.07;;;6.80;92.10;;;;;;4994951;28;20221;-89
2023/01/10 12:14:57;;;;;;;40.30;35.87;;;6.80;92.00;;;;;;4993949;28;20197;-89
2023/01/10 12:17:31;;;;;;;40.63;33.33;;;6.80;91.90;;;;;;4993889;28;20189;-89
2023/01/10 12:20:00;;;;;;;50.17;35.63;;;6.80;91.80;;;;;;4993746;28;20206;-89
2023/01/10 12:22:33;;;;;;;43.53;33.53;;;6.90;91.90;;;;;;4995566;28;20194;-88
2023/01/10 12:25:04;;;;;;;58.30;36.97;;;6.80;91.90;;;;;;4995090;28;20630;-88
2023/01/10 12:27:31;;;;;;;37.80;33.97;;;6.90;91.90;;;;;;4993301;28;20683;-89
2023/01/10 12:30:03;;;;;;;42.30;34.50;;;6.90;91.80;;;;;;4994672;28;20189;-89
2023/01/10 12:32:52;;;;;;;41.70;35.07;;;6.90;91.90;;;;;;4994313;28;20221;-90
2023/01/10 12:35:22;;;;;;;39.70;35.33;;;6.90;92.00;;;;;;4985236;28;20193;-89
2023/01/10 12:37:54;;;;;;;51.20;35.43;;;6.90;91.90;;;;;;4994040;28;20231;-87
2023/01/10 12:40:52;;;;;;;41.70;32.57;;;6.90;91.80;;;;;;4993732;28;20190;-87
2023/01/10 12:46:36;;;;;;;41.83;31.60;;;6.90;91.50;;;;;;4994588;28;20225;-88
2023/01/10 12:49:12;;;;;;;38.50;33.33;;;6.90;91.50;;;;;;4993453;28;20165;-88
2023/01/10 12:51:38;;;;;;;47.37;33.80;;;6.90;91.70;;;;;;4993136;28;20257;-88
2023/01/10 12:54:15;;;;;;;48.50;32.77;;;7.00;91.80;;;;;;4994112;28;20194;-87
2023/01/10 12:56:40;;;;;;;40.33;32.93;;;7.00;91.80;;;;;;4993081;28;20256;-88
2023/01/10 12:59:25;;;;;;;48.93;29.73;;;7.00;91.70;;;;;;4993045;28;20264;-89